• Join FlightAware (Why Join?)
  • Login
  • US Flag 
01:49AM EDT


 

Airport Tracker/Info


-or-


 

Live Flight TrackerFlight Track Log ✈ N860BA ✈ 29-Aug-2013 ✈ KHPN - KELP

Flight Track Log - Related Links

Times and Time Zones

All times are in EDT time to prevent confusion due to time zone crossing. See the N860BA flight status page for this flight to view local times or setup timezone preferences in your user account.

Time Position Orientation Groundspeed Altitude Reporting Facility
EDT Latitude Longitude Course Direction KTS MPH feet Rate Location/Type
08:33PM 41.0500 -73.7000 270° West 160 184 1,100  Level New York TRACON
08:34PM 41.0500 -73.7500 270° West 212 244 4,000 2,640 Climbing New York TRACON
08:35PM 41.0333 -73.8333 255° West 259 298 6,400 2,760 Climbing New York TRACON
08:36PM 40.9833 -73.9167 232° Southwest 281 323 9,800 2,460 Climbing New York TRACON
08:37PM 40.9667 -74.0000 255° West 323 372 11,100 2,460 Climbing New York TRACON
08:38PM 40.9333 -74.1333 252° West 335 386 14,500 1,800 Climbing New York TRACON
08:39PM 40.8833 -74.2500 240° Southwest 342 394 15,000 1,200 Climbing New York TRACON
08:40PM 40.8333 -74.3500 237° Southwest 360 414 17,000 1,020 Climbing New York TRACON
08:41PM 40.7333 -74.4000 201° Southwest 367 422 17,100  Climbing New York TRACON
08:42PM 40.7667 -74.5000 294° West 310 357 17,100  Level New York TRACON
08:43PM 40.8333 -74.5833 317° Northwest 308 354 17,100  Level New York TRACON
08:44PM 40.8542 -74.6475 293° West 315 362 17,100  Level New York Center
08:45PM 40.8278 -74.7558 252° West 340 391 17,100  Level New York Center
08:46PM 40.7781 -74.8678 240° Southwest 340 391 17,100 300 Level New York Center
08:47PM 40.7283 -74.9772 239° Southwest 372 428 17,800 900 Climbing New York Center
08:48PM 40.6694 -75.1050 239° Southwest 400 460 18,900 1,200 Climbing New York Center
08:49PM 40.6036 -75.2539 240° Southwest 419 482 20,200 1,320 Climbing New York Center
08:50PM 40.5419 -75.3892 239° Southwest 430 495 21,600 1,500 Climbing New York Center
08:51PM 40.4783 -75.5267 239° Southwest 435 501 23,200 1,560 Climbing New York Center
08:52PM 40.4164 -75.6614 239° Southwest 435 501 24,800 1,560 Climbing New York Center
08:53PM 40.3547 -75.7933 239° Southwest 435 501 26,400 1,440 Climbing New York Center
08:54PM 40.2903 -75.9303 238° Southwest 440 506 27,700 1,200 Climbing New York Center
08:55PM 40.2261 -76.0667 238° Southwest 440 506 28,800 900 Climbing New York Center
08:56PM 40.1703 -76.1903 239° Southwest 440 506 29,600 720 Climbing New York Center
08:57PM 40.0944 -76.3444 237° Southwest 445 512 30,300 600 Climbing New York Center
08:58PM 40.0289 -76.4911 240° Southwest 462 532 30,900 540 Climbing New York Center
08:59PM 39.9592 -76.6369 238° Southwest 467 537 31,400 540 Climbing New York Center
09:00PM 39.8911 -76.7883 240° Southwest 472 543 32,000 480 Climbing New York Center
09:02PM 39.7353 -77.1106 238° Southwest 476 548 33,100 480 Climbing Washington Center
09:03PM 39.6667 -77.2575 239° Southwest 481 554 33,600 540 Climbing Washington Center
09:04PM 39.5958 -77.4067 238° Southwest 481 554 34,200 540 Climbing Washington Center
09:05PM 39.5269 -77.5503 238° Southwest 481 554 34,700 480 Climbing Washington Center
09:06PM 39.4597 -77.6961 239° Southwest 481 554 35,200 540 Climbing Washington Center
09:07PM 39.3883 -77.8444 238° Southwest 488 562 35,800 540 Climbing Washington Center
09:08PM 39.3272 -77.9928 242° Southwest 483 556 36,300 540 Climbing Washington Center
09:09PM 39.2700 -78.1411 244° Southwest 471 542 36,900 540 Climbing Washington Center
09:10PM 39.2106 -78.2892 243° Southwest 466 536 37,400 480 Climbing Washington Center
09:11PM 39.1531 -78.4314 242° Southwest 460 529 37,900 300 Climbing Washington Center
09:12PM 39.0953 -78.5764 243° Southwest 460 529 38,000  Climbing Washington Center
09:13PM 39.0353 -78.7208 242° Southwest 455 524 38,000  Level Washington Center
09:14PM 38.9750 -78.8678 242° Southwest 460 529 38,000  Level Washington Center
09:15PM 38.9147 -79.0172 243° Southwest 460 529 38,000  Level Washington Center
09:16PM 38.8542 -79.1664 243° Southwest 465 535 38,000  Level Washington Center
09:17PM 38.8242 -79.3222 256° West 447 514 38,000  Level Washington Center
09:18PM 38.8153 -79.4789 266° West 447 514 38,000  Level Washington Center
09:19PM 38.8081 -79.6278 266° West 454 522 38,000  Level Washington Center
09:21PM 38.7753 -80.0128 264° West 456 525 38,000  Level Indianapolis Center
09:23PM 38.7633 -80.1744 265° West 455 524 38,000  Level Indianapolis Center
09:24PM 38.7508 -80.3372 264° West 458 527 38,000  Level Indianapolis Center
09:25PM 38.7386 -80.4992 265° West 457 526 38,000  Level Indianapolis Center
09:26PM 38.7253 -80.6636 264° West 463 533 38,000  Level Indianapolis Center
09:27PM 38.7083 -80.8606 264° West 465 535 38,000  Level Indianapolis Center
09:28PM 38.6944 -81.0264 264° West 467 537 38,000  Level Indianapolis Center
09:29PM 38.6803 -81.1919 264° West 468 539 38,000  Level Indianapolis Center
09:30PM 38.6656 -81.3581 264° West 468 539 38,000  Level Indianapolis Center
09:31PM 38.6525 -81.5286 264° West 472 543 38,000  Level Indianapolis Center
09:32PM 38.6369 -81.6967 263° West 474 545 38,000  Level Indianapolis Center
09:33PM 38.6206 -81.8781 263° West 483 556 38,000  Level Indianapolis Center
09:34PM 38.6047 -82.0450 263° West 475 547 38,000  Level Indianapolis Center
09:36PM 38.5736 -82.3817 263° West 477 549 38,000  Level Indianapolis Center
09:37PM 38.5553 -82.5650 263° West 479 551 38,000  Level Indianapolis Center
09:38PM 38.5389 -82.7339 263° West 480 552 38,000  Level Indianapolis Center
09:39PM 38.5214 -82.9011 262° West 478 550 38,000  Level Indianapolis Center
09:40PM 38.5044 -83.0697 263° West 479 551 38,000  Level Indianapolis Center
09:41PM 38.4872 -83.2364 263° West 476 548 38,000  Level Indianapolis Center
09:42PM 38.4689 -83.4031 262° West 475 547 38,000  Level Indianapolis Center
09:43PM 38.4333 -83.5953 257° West 478 550 38,000  Level Indianapolis Center
09:44PM 38.4044 -83.7603 257° West 477 549 38,000  Level Indianapolis Center
09:45PM 38.3747 -83.9244 257° West 476 548 38,000  Level Indianapolis Center
09:46PM 38.3450 -84.0875 257° West 474 545 38,000  Level Indianapolis Center
09:47PM 38.3150 -84.2514 257° West 474 545 38,100 480 Climbing Indianapolis Center
09:48PM 38.2842 -84.4133 256° West 472 543 39,000 840 Climbing Indianapolis Center
09:49PM 38.2561 -84.5694 257° West 458 527 39,900 480 Climbing Indianapolis Center
09:50PM 38.2264 -84.7264 256° West 458 527 40,000  Climbing Indianapolis Center
09:51PM 38.1919 -84.9133 257° West 464 534 40,000  Level Indianapolis Center
09:52PM 38.1600 -85.0750 256° West 470 541 40,000  Level Indianapolis Center
09:53PM 38.1331 -85.2222 257° West 465 535 40,000  Level Indianapolis Center
09:54PM 38.1011 -85.3836 256° West 468 539 40,000  Level Indianapolis Center
09:55PM 38.0700 -85.5431 256° West 466 536 40,000  Level Indianapolis Center
09:56PM 38.0406 -85.7003 257° West 460 529 40,000  Level Indianapolis Center
09:57PM 38.0094 -85.8586 256° West 460 529 40,000  Level Indianapolis Center
09:58PM 37.9781 -86.0169 256° West 461 531 40,000  Level Indianapolis Center
09:59PM 37.9406 -86.2042 256° West 457 526 40,000  Level Indianapolis Center
10:00PM 37.9083 -86.3597 255° West 456 525 40,000  Level Indianapolis Center
10:01PM 37.8767 -86.5161 256° West 455 524 40,000  Level Indianapolis Center
10:02PM 37.8439 -86.6725 255° West 457 526 40,000  Level Indianapolis Center
10:03PM 37.8122 -86.8286 256° West 454 522 40,000  Level Indianapolis Center
10:04PM 37.7803 -86.9831 255° West 452 520 40,000  Level Indianapolis Center
10:05PM 37.7481 -87.1375 255° West 450 518 40,000  Level Indianapolis Center
10:06PM 37.7153 -87.2942 255° West 450 518 40,000  Level Indianapolis Center
10:08PM 37.6828 -87.4475 255° West 449 517 40,000  Level Indianapolis Center
10:09PM 37.6500 -87.5994 255° West 447 514 40,000  Level Indianapolis Center
10:10PM 37.6175 -87.7517 255° West 446 513 40,000  Level Indianapolis Center
10:11PM 37.5844 -87.9025 255° West 444 511 40,000  Level Indianapolis Center
10:12PM 37.5517 -88.0550 255° West 448 516 40,000  Level Indianapolis Center
10:13PM 37.5181 -88.2058 254° West 445 512 40,000  Level Indianapolis Center
10:14PM 37.4856 -88.3522 254° West 443 510 40,000  Level Indianapolis Center
10:15PM 37.4511 -88.5047 254° West 442 509 40,000  Level Indianapolis Center
10:16PM 37.4200 -88.6483 255° West 439 505 40,000  Level Indianapolis Center
10:17PM 37.3794 -88.8281 254° West 442 509 40,000  Level Indianapolis Center
10:18PM 37.3450 -88.9756 254° West 440 506 40,000  Level Indianapolis Center
10:19PM 37.3117 -89.1228 254° West 439 505 40,000  Level Indianapolis Center
10:20PM 37.2772 -89.2706 254° West 439 505 40,000  Level Indianapolis Center
10:21PM 37.2389 -89.4475 255° West 439 505 40,000  Level Memphis Center
10:22PM 37.2044 -89.5964 254° West 439 505 40,000  Level Memphis Center
10:23PM 37.1700 -89.7425 254° West 439 505 40,000  Level Memphis Center
10:24PM 37.1353 -89.8886 253° West 439 505 40,000  Level Memphis Center
10:25PM 37.1003 -90.0317 253° West 439 505 40,000  Level Memphis Center
10:26PM 37.0650 -90.1800 253° West 439 505 40,000  Level Memphis Center
10:27PM 37.0297 -90.3258 253° West 439 505 40,000  Level Memphis Center
10:28PM 36.9944 -90.4686 253° West 439 505 40,000  Level Memphis Center
10:29PM 36.9586 -90.6164 253° West 439 505 40,000  Level Memphis Center
10:30PM 36.9208 -90.7592 252° West 439 505 40,000  Level Memphis Center
10:31PM 36.8850 -90.9042 253° West 439 505 40,000  Level Memphis Center
10:32PM 36.8489 -91.0492 253° West 439 505 40,000  Level Memphis Center
10:33PM 36.8125 -91.1992 253° West 429 494 40,000  Level Memphis Center
10:34PM 36.7758 -91.3464 253° West 429 494 40,000  Level Memphis Center
10:35PM 36.7392 -91.4908 252° West 434 499 40,000  Level Memphis Center
10:36PM 36.7025 -91.6328 252° West 434 499 40,000  Level Memphis Center
10:37PM 36.6656 -91.7769 252° West 439 505 40,000  Level Memphis Center
10:38PM 36.6283 -91.9211 252° West 434 499 40,000  Level Memphis Center
10:39PM 36.5931 -92.0628 253° West 434 499 40,000  Level Memphis Center
10:40PM 36.5556 -92.2064 252° West 434 499 40,000  Level Memphis Center
10:41PM 36.5225 -92.3350 252° West 434 499 40,000  Level Memphis Center
10:42PM 36.4847 -92.4758 252° West 434 499 40,000  Level Memphis Center
10:43PM 36.4444 -92.6297 252° West 434 499 40,000  Level Memphis Center
10:44PM 36.4064 -92.7731 252° West 439 505 40,000  Level Memphis Center
10:45PM 36.3722 -92.9164 254° West 439 505 40,000  Level Memphis Center
10:46PM 36.3339 -93.0542 251° West 439 505 40,000  Level Memphis Center
10:47PM 36.2953 -93.1997 252° West 431 496 40,000  Level Memphis Center
10:48PM 36.2589 -93.3272 251° West 438 504 40,000  Level Memphis Center
10:49PM 36.2200 -93.4672 251° West 443 510 40,000  Level Memphis Center
10:50PM 36.1808 -93.6097 251° West 438 504 40,000  Level Memphis Center
10:51PM 36.1439 -93.7497 252° West 438 504 40,000  Level Memphis Center
10:52PM 36.1044 -93.8919 251° West 438 504 40,000  Level Memphis Center
10:53PM 36.0647 -94.0364 251° West 438 504 40,000  Level Memphis Center
10:54PM 36.0231 -94.1758 250° West 438 504 40,000  Level Memphis Center
10:55PM 35.9831 -94.3175 251° West 438 504 40,000  Level Memphis Center
10:56PM 35.9431 -94.4617 251° West 438 504 40,000  Level Memphis Center
10:58PM 35.8561 -94.7736 251° West 444 511 40,000  Level Fort Worth Center
10:59PM 35.8153 -94.9183 251° West 449 517 40,000  Level Fort Worth Center
11:00PM 35.7797 -95.0319 249° West 449 517 40,000  Level Fort Worth Center
11:01PM 35.7347 -95.1892 251° West 449 517 40,000  Level Fort Worth Center
11:02PM 35.6933 -95.3308 250° West 449 517 40,000  Level Fort Worth Center
11:03PM 35.6519 -95.4722 250° West 449 517 40,000  Level Fort Worth Center
11:04PM 35.6083 -95.6189 250° West 449 517 40,000  Level Fort Worth Center
11:05PM 35.5664 -95.7600 250° West 449 517 40,000  Level Fort Worth Center
11:06PM 35.5222 -95.8986 249° West 449 517 40,000  Level Fort Worth Center
11:07PM 35.4800 -96.0422 250° West 444 511 40,000  Level Fort Worth Center
11:08PM 35.4378 -96.1881 250° West 444 511 40,000  Level Fort Worth Center
11:09PM 35.3933 -96.3289 249° West 449 517 40,000  Level Fort Worth Center
11:10PM 35.3506 -96.4744 250° West 449 517 40,000  Level Fort Worth Center
11:11PM 35.3056 -96.6147 249° West 449 517 40,000  Level Fort Worth Center
11:12PM 35.2628 -96.7653 251° West 449 517 40,000  Level Fort Worth Center
11:13PM 35.2156 -96.9053 248° West 449 517 40,000  Level Fort Worth Center
11:14PM 35.1700 -97.0528 249° West 449 517 40,000  Level Fort Worth Center
11:15PM 35.1203 -97.2131 249° West 449 517 40,000  Level Fort Worth Center
11:16PM 35.0747 -97.3578 249° West 454 522 40,000  Level Fort Worth Center
11:17PM 35.0286 -97.5072 249° West 460 529 40,000  Level Fort Worth Center
11:18PM 34.9847 -97.6492 249° West 460 529 40,000  Level Fort Worth Center
11:19PM 34.9383 -97.7986 249° West 460 529 40,000  Level Fort Worth Center
11:20PM 34.8942 -97.9425 250° West 466 536 40,000  Level Fort Worth Center
11:21PM 34.8475 -98.0892 249° West 466 536 40,000  Level Fort Worth Center
11:22PM 34.8008 -98.2328 248° West 466 536 40,000  Level Fort Worth Center
11:23PM 34.7517 -98.3789 248° West 466 536 40,000  Level Fort Worth Center
11:24PM 34.7153 -98.4972 250° West 460 529 40,000  Level Fort Worth Center
11:25PM 34.6658 -98.6456 248° West 454 522 40,000  Level Fort Worth Center
11:26PM 34.6119 -98.8139 249° West 465 535 40,000  Level Fort Worth Center
11:27PM 34.5644 -98.9594 248° West 473 544 40,000  Level Fort Worth Center
11:28PM 34.5167 -99.1047 248° West 473 544 40,000  Level Fort Worth Center
11:29PM 34.4689 -99.2397 247° West 449 517 40,000  Level Fort Worth Center
11:30PM 34.4186 -99.3872 248° West 456 525 40,000  Level Fort Worth Center
11:31PM 34.3681 -99.5344 247° West 469 540 40,000  Level Fort Worth Center
11:32PM 34.3283 -99.6667 250° West 469 540 40,000  Level Fort Worth Center
11:33PM 34.2775 -99.8111 247° West 469 540 40,000  Level Fort Worth Center
11:34PM 34.2308 -99.9581 249° West 469 540 40,000  Level Fort Worth Center
11:35PM 34.1800 -100.0997 247° West 469 540 40,000  Level Fort Worth Center
11:36PM 34.1331 -100.2411 248° West 469 540 40,000  Level Fort Worth Center
11:37PM 34.0792 -100.3975 247° West 463 533 40,000  Level Fort Worth Center
11:38PM 34.0322 -100.5311 247° West 469 540 40,000  Level Fort Worth Center
11:39PM 33.9825 -100.6747 247° West 469 540 40,000  Level Fort Worth Center
11:40PM 33.9350 -100.8131 248° West 469 540 40,000  Level Fort Worth Center
11:41PM 33.8831 -100.9561 246° West 469 540 40,000  Level Fort Worth Center
11:42PM 33.8331 -101.0967 247° West 460 529 40,000  Level Fort Worth Center
11:43PM 33.7783 -101.2517 247° West 460 529 40,000  Level Fort Worth Center
11:44PM 33.7328 -101.3769 246° West 465 535 40,000  Level Fort Worth Center
11:45PM 33.6758 -101.5292 246° West 460 529 40,000  Level Fort Worth Center
11:46PM 33.6336 -101.6619 249° West 460 529 40,000  Level Fort Worth Center
11:47PM 33.5831 -101.7992 246° West 466 536 40,000  Level Fort Worth Center
11:48PM 33.5322 -101.9411 247° West 466 536 40,000  Level Fort Worth Center
11:49PM 33.4747 -102.0850 244° Southwest 479 551 40,000  Level Fort Worth Center
11:50PM 33.4186 -102.2389 246° West 463 533 40,000  Level Fort Worth Center
11:51PM 33.3722 -102.3631 246° West 463 533 40,000  Level Fort Worth Center
11:52PM 33.3161 -102.5142 246° West 463 533 40,000  Level Fort Worth Center
11:53PM 33.2753 -102.6408 249° West 463 533 40,000  Level Fort Worth Center
11:54PM 33.2233 -102.7817 246° West 463 533 40,000  Level Fort Worth Center
11:55PM 33.1694 -102.9225 245° Southwest 463 533 40,000  Level Fort Worth Center
11:56PM 33.1194 -103.0583 246° West 463 533 40,000  Level Fort Worth Center
11:57PM 33.0600 -103.2156 246° West 474 545 40,000  Level Fort Worth Center
11:58PM 33.0075 -103.3556 246° West 474 545 40,000  Level Fort Worth Center
11:59PM 32.9531 -103.4956 245° Southwest 468 539 40,000  Level Fort Worth Center
12:00AM 32.8961 -103.6364 244° Southwest 470 541 40,000  Level Albuquerque Center
12:01AM 32.8353 -103.7975 246° West 450 518 40,000  Level Albuquerque Center
12:02AM 32.7797 -103.9389 245° Southwest 465 535 40,000  Level Albuquerque Center
12:03AM 32.7258 -104.0761 245° Southwest 460 529 40,000  Level Albuquerque Center
12:04AM 32.6719 -104.2153 245° Southwest 462 532 40,000 -600 Level Albuquerque Center
12:05AM 32.6050 -104.3617 242° Southwest 467 537 38,900 -1,800 Descending Albuquerque Center
12:06AM 32.5436 -104.4989 242° Southwest 468 539 36,400 -2,340 Descending Albuquerque Center
12:07AM 32.4814 -104.6353 242° Southwest 469 540 34,200 -2,400 Descending Albuquerque Center
12:08AM 32.4194 -104.7731 242° Southwest 470 541 31,500 -2,460 Descending Albuquerque Center
12:09AM 32.3661 -104.8983 243° Southwest 477 549 29,200 -2,340 Descending Albuquerque Center
12:10AM 32.3050 -105.0328 242° Southwest 474 545 26,800 -2,640 Descending Albuquerque Center
12:11AM 32.2322 -105.1939 242° Southwest 471 542 23,900 -2,880 Descending Albuquerque Center
12:12AM 32.1717 -105.3247 241° Southwest 464 534 21,000 -2,880 Descending Albuquerque Center
12:13AM 32.1139 -105.4517 242° Southwest 448 516 18,100 -2,760 Descending Albuquerque Center
12:14AM 32.0569 -105.5736 241° Southwest 431 496 15,500 -2,820 Descending Albuquerque Center
12:15AM 32.0056 -105.6858 242° Southwest 388 447 12,400 -3,240 Descending Albuquerque Center
12:17AM 31.9669 -105.7903 246° West 361 415 9,000 -1,740 Descending Albuquerque Center
12:18AM 31.9372 -105.8781 248° West 294 338 8,900 -60 Descending Albuquerque Center
12:19AM 31.9075 -105.9672 249° West 288 331 8,900  Level Albuquerque Center
12:20AM 31.8781 -106.0519 248° West 287 330 8,900 -360 Level Albuquerque Center
12:21AM 31.8489 -106.1367 248° West 282 325 8,200 -1,020 Descending Albuquerque Center
12:22AM 31.8228 -106.2119 248° West 256 295 6,900 -1,440 Descending Albuquerque Center
12:23AM 31.7969 -106.2858 248° West 195 224 5,300 -1,200 Descending Albuquerque Center
12:24AM 31.7992 -106.3319 273° West 147 169 4,500 -720 Descending Albuquerque Center
12:25AM 31.8022 -106.3753 275° West 135 155 3,900 -600 Descending Albuquerque Center
12:27AM 31.8000 -106.3667 249° West  Level FlightAware Approximate
12:34AM 31.8072 -106.3764 249° West  Level Estimated
12:35AM 31.8072 -106.3764 249° West  Level Estimated
12:36AM 31.8072 -106.3764 249° West  Level Estimated